createdAt,value
2019-06-20T00:00:48.694Z,5.07
2019-06-20T00:03:17.382Z,4.87
2019-06-20T00:05:45.804Z,5.07
2019-06-20T00:08:14.249Z,4.60
2019-06-20T00:10:42.683Z,4.60
2019-06-20T00:13:11.060Z,4.37
2019-06-20T00:15:40.251Z,4.53
2019-06-20T00:18:08.478Z,4.70
2019-06-20T00:20:56.021Z,4.50
2019-06-20T00:23:24.477Z,4.73
2019-06-20T00:25:52.797Z,4.30
2019-06-20T00:28:21.243Z,4.77
2019-06-20T00:30:49.625Z,5.03
2019-06-20T00:33:17.885Z,4.87
2019-06-20T00:35:46.360Z,4.60
2019-06-20T00:38:14.555Z,4.67
2019-06-20T00:40:43.100Z,5.00
2019-06-20T00:43:17.432Z,5.40
2019-06-20T00:45:41.725Z,5.63
2019-06-20T00:48:09.975Z,4.80
2019-06-20T00:50:38.224Z,4.30
2019-06-20T00:53:06.636Z,4.93
2019-06-20T00:55:34.782Z,4.60
2019-06-20T00:58:03.095Z,4.37
2019-06-20T01:00:34.994Z,4.37
2019-06-20T01:03:03.986Z,3.60
2019-06-20T01:05:32.254Z,5.30
2019-06-20T01:08:00.567Z,5.50
2019-06-20T01:10:28.694Z,4.83
2019-06-20T01:12:56.912Z,5.63
2019-06-20T01:15:25.131Z,5.00
2019-06-20T01:17:53.422Z,4.23
2019-06-20T01:20:21.414Z,4.20
2019-06-20T01:22:49.222Z,3.73
2019-06-20T01:25:39.244Z,4.00
2019-06-20T01:28:07.027Z,3.90
2019-06-20T01:30:34.815Z,4.67
2019-06-20T01:33:02.622Z,4.20
2019-06-20T01:35:30.625Z,5.07
2019-06-20T01:37:58.416Z,5.13
2019-06-20T01:40:26.317Z,4.43
2019-06-20T01:42:54.124Z,4.53
2019-06-20T01:45:22.058Z,4.27
2019-06-20T01:47:49.867Z,4.00
2019-06-20T01:50:17.615Z,3.50
2019-06-20T01:52:45.441Z,3.43
2019-06-20T01:55:13.275Z,3.43
2019-06-20T01:57:41.056Z,4.00
2019-06-20T02:00:11.647Z,4.63
2019-06-20T02:02:39.369Z,5.10
2019-06-20T02:05:08.697Z,5.30
2019-06-20T02:07:36.483Z,5.50
2019-06-20T02:10:06.058Z,5.37
2019-06-20T02:12:33.822Z,5.80
2019-06-20T02:15:01.677Z,5.10
2019-06-20T02:17:29.403Z,4.47
2019-06-20T02:19:57.197Z,4.90
2019-06-20T02:22:25.044Z,4.57
2019-06-20T02:24:52.964Z,4.63
2019-06-20T02:27:20.903Z,4.70
2019-06-20T02:29:48.678Z,4.90
2019-06-20T02:32:16.483Z,4.63
2019-06-20T02:34:51.774Z,5.30
2019-06-20T02:37:19.558Z,4.83
2019-06-20T02:39:47.373Z,5.23
2019-06-20T02:42:15.176Z,4.90
2019-06-20T02:44:42.941Z,4.83
2019-06-20T02:47:10.749Z,5.13
2019-06-20T02:49:38.502Z,4.93
2019-06-20T02:52:06.269Z,5.00
2019-06-20T02:54:34.067Z,5.43
2019-06-20T02:57:01.818Z,4.80
2019-06-20T02:59:29.618Z,4.90
2019-06-20T03:01:57.340Z,4.70
2019-06-20T03:04:25.256Z,4.80
2019-06-20T03:06:53.144Z,5.33
2019-06-20T03:09:20.972Z,4.50
2019-06-20T03:11:48.745Z,4.60
2019-06-20T03:14:16.580Z,4.97
2019-06-20T03:16:44.344Z,5.50
2019-06-20T03:19:12.095Z,5.23
2019-06-20T03:21:39.971Z,4.20
2019-06-20T03:24:07.963Z,3.83
2019-06-20T03:26:35.921Z,3.47
2019-06-20T03:29:03.891Z,3.23
2019-06-20T03:31:31.658Z,3.77
2019-06-20T03:33:59.626Z,3.40
2019-06-20T03:36:27.447Z,3.50
2019-06-20T03:38:55.342Z,3.97
2019-06-20T03:41:23.148Z,3.73
2019-06-20T03:43:50.894Z,2.93
2019-06-20T03:46:18.645Z,3.60
2019-06-20T03:48:46.367Z,3.90
2019-06-20T03:51:14.229Z,3.97
2019-06-20T03:53:41.951Z,3.83
2019-06-20T03:56:09.730Z,3.67
2019-06-20T03:58:37.502Z,4.00
2019-06-20T04:01:05.377Z,3.83
2019-06-20T04:03:33.116Z,3.60
2019-06-20T04:06:00.918Z,3.70
2019-06-20T04:08:29.015Z,3.43
2019-06-20T04:10:56.915Z,4.10
2019-06-20T04:13:24.868Z,3.67
2019-06-20T04:15:52.950Z,3.30
2019-06-20T04:18:20.753Z,3.27
2019-06-20T04:20:48.557Z,3.50
2019-06-20T04:23:16.304Z,3.30
2019-06-20T04:25:44.216Z,3.40
2019-06-20T04:28:12.033Z,2.90
2019-06-20T04:30:39.788Z,3.40
2019-06-20T04:33:07.538Z,2.90
2019-06-20T04:35:35.585Z,3.07
2019-06-20T04:38:03.408Z,2.87
2019-06-20T04:40:31.217Z,3.00
2019-06-20T04:42:59.066Z,2.43
2019-06-20T04:45:58.621Z,2.50
2019-06-20T04:48:26.407Z,2.70
2019-06-20T04:50:54.188Z,2.37
2019-06-20T04:53:21.945Z,2.73
2019-06-20T04:55:54.938Z,2.50
2019-06-20T04:58:22.737Z,2.50
2019-06-20T05:00:52.313Z,2.40
2019-06-20T05:03:20.106Z,2.40
2019-06-20T05:05:48.078Z,2.50
2019-06-20T05:08:15.934Z,2.60
2019-06-20T05:10:43.895Z,2.40
2019-06-20T05:13:11.762Z,2.50
2019-06-20T05:15:52.139Z,2.07
2019-06-20T05:18:09.477Z,2.07
2019-06-20T05:20:37.398Z,1.90
2019-06-20T05:23:05.140Z,2.30
2019-06-20T05:25:33.607Z,2.10
2019-06-20T05:28:01.331Z,2.03
2019-06-20T05:30:29.544Z,2.17
2019-06-20T05:32:57.326Z,2.07
2019-06-20T05:35:25.098Z,2.00
2019-06-20T05:37:52.989Z,2.30
2019-06-20T05:40:21.301Z,2.10
2019-06-20T05:42:49.259Z,2.30
2019-06-20T05:45:17.137Z,2.17
2019-06-20T05:47:44.914Z,2.30
2019-06-20T05:50:13.330Z,2.23
2019-06-20T05:52:41.342Z,2.10
2019-06-20T05:55:09.337Z,1.60
2019-06-20T05:57:37.099Z,1.80
2019-06-20T06:00:05.716Z,1.87
2019-06-20T06:02:33.593Z,1.83
2019-06-20T06:05:01.738Z,2.00
2019-06-20T06:07:29.578Z,2.17
2019-06-20T06:09:57.374Z,2.17
2019-06-20T06:12:25.162Z,1.90
2019-06-20T06:14:55.702Z,2.10
2019-06-20T06:17:23.503Z,2.13
2019-06-20T06:19:51.287Z,2.00
2019-06-20T06:22:19.056Z,1.90
2019-06-20T06:24:46.839Z,1.90
2019-06-20T06:27:14.613Z,1.90
2019-06-20T06:29:42.409Z,1.90
2019-06-20T06:32:10.370Z,2.00
2019-06-20T06:34:38.292Z,1.60
2019-06-20T06:37:06.088Z,1.77
2019-06-20T06:39:33.872Z,1.80
2019-06-20T06:42:01.705Z,1.80
2019-06-20T06:44:31.756Z,2.20
2019-06-20T06:46:59.971Z,2.20
2019-06-20T06:49:27.827Z,1.90
2019-06-20T06:51:55.634Z,1.90
2019-06-20T06:54:23.471Z,2.00
2019-06-20T06:56:51.283Z,1.87
2019-06-20T06:59:19.025Z,2.07
2019-06-20T07:01:46.841Z,1.80
2019-06-20T07:04:14.644Z,1.90
2019-06-20T07:06:42.422Z,1.93
2019-06-20T07:09:10.221Z,2.10
2019-06-20T07:11:38.054Z,2.07
2019-06-20T07:14:05.939Z,2.00
2019-06-20T07:16:33.704Z,1.77
2019-06-20T07:19:01.471Z,2.10
2019-06-20T07:21:29.285Z,2.00
2019-06-20T07:23:57.109Z,2.37
2019-06-20T07:26:24.941Z,1.67
2019-06-20T07:28:52.714Z,2.17
2019-06-20T07:31:20.496Z,2.10
2019-06-20T07:33:48.285Z,1.92
2019-06-20T07:36:16.179Z,1.85
2019-06-20T07:38:44.006Z,1.75
2019-06-20T07:41:11.775Z,1.82
2019-06-20T07:43:39.592Z,2.02
2019-06-20T07:46:07.461Z,1.90
2019-06-20T07:48:35.326Z,2.12
2019-06-20T07:51:03.092Z,2.22
2019-06-20T07:53:30.959Z,2.20
2019-06-20T07:55:58.907Z,2.08
2019-06-20T07:58:26.776Z,2.20
2019-06-20T08:00:54.535Z,2.08
2019-06-20T08:03:22.327Z,1.80
2019-06-20T08:05:55.158Z,2.22
2019-06-20T08:08:23.013Z,2.00
2019-06-20T08:10:50.859Z,1.95
2019-06-20T08:13:18.749Z,1.90
2019-06-20T08:15:46.914Z,1.98
2019-06-20T08:18:15.151Z,2.70
2019-06-20T08:20:43.004Z,2.00
2019-06-20T08:23:10.800Z,1.75
2019-06-20T08:25:38.602Z,2.17
2019-06-20T08:28:06.643Z,1.92
2019-06-20T08:30:35.845Z,2.25
2019-06-20T08:33:10.313Z,2.67
2019-06-20T08:35:34.690Z,1.77
2019-06-20T08:38:03.798Z,2.17
2019-06-20T08:40:39.197Z,1.70
2019-06-20T08:43:07.002Z,1.80
2019-06-20T08:45:36.500Z,1.90
2019-06-20T08:48:04.818Z,1.85
2019-06-20T08:50:33.326Z,1.70
2019-06-20T08:53:01.664Z,1.60
2019-06-20T08:55:29.827Z,1.80
2019-06-20T08:57:59.381Z,1.60
2019-06-20T09:00:28.862Z,1.77
2019-06-20T09:02:57.395Z,1.85
2019-06-20T09:05:29.585Z,1.77
2019-06-20T09:07:58.381Z,2.20
2019-06-20T09:10:35.413Z,1.67
2019-06-20T09:13:03.795Z,1.80
2019-06-20T09:15:32.198Z,1.72
2019-06-20T09:18:00.744Z,1.75
2019-06-20T09:20:28.905Z,1.80
2019-06-20T09:22:56.831Z,1.80
2019-06-20T09:25:24.629Z,1.40
2019-06-20T09:27:53.298Z,1.80
2019-06-20T09:30:22.416Z,1.90
2019-06-20T09:32:52.240Z,1.57
2019-06-20T09:35:20.332Z,1.77
2019-06-20T09:37:48.243Z,1.87
2019-06-20T09:40:17.952Z,1.85
2019-06-20T09:42:45.745Z,2.00
2019-06-20T09:45:14.511Z,1.67
2019-06-20T09:47:42.532Z,1.90
2019-06-20T09:50:13.084Z,1.85
2019-06-20T09:52:41.181Z,1.67
2019-06-20T09:55:10.898Z,1.70
2019-06-20T09:57:39.277Z,1.55
2019-06-20T10:00:10.661Z,2.10
2019-06-20T10:02:37.351Z,1.70
2019-06-20T10:05:07.037Z,1.40
2019-06-20T10:07:34.873Z,1.62
2019-06-20T10:10:03.229Z,2.00
2019-06-20T10:12:31.115Z,1.67
2019-06-20T10:14:59.064Z,1.60
2019-06-20T10:17:26.842Z,1.70
2019-06-20T10:19:54.667Z,2.00
2019-06-20T10:22:22.447Z,1.70
2019-06-20T10:24:51.291Z,1.70
2019-06-20T10:27:19.819Z,2.08
2019-06-20T10:29:48.967Z,2.00
2019-06-20T10:32:17.269Z,1.80
2019-06-20T10:34:46.687Z,1.27
2019-06-20T10:37:15.361Z,1.40
2019-06-20T10:39:44.508Z,1.50
2019-06-20T10:42:13.295Z,1.40
2019-06-20T10:44:43.000Z,1.70
2019-06-20T10:47:11.787Z,1.40
2019-06-20T10:49:42.916Z,1.47
2019-06-20T10:52:11.464Z,1.60
2019-06-20T10:54:41.692Z,1.37
2019-06-20T10:57:10.204Z,1.70
2019-06-20T10:59:38.551Z,1.65
2019-06-20T11:02:07.406Z,1.32
2019-06-20T11:04:42.283Z,1.50
2019-06-20T11:07:10.990Z,1.75
2019-06-20T11:09:40.179Z,1.47
2019-06-20T11:12:09.370Z,1.70
2019-06-20T11:14:38.733Z,1.50
2019-06-20T11:17:07.547Z,1.70
2019-06-20T11:19:38.143Z,1.67
2019-06-20T11:22:05.989Z,1.65
2019-06-20T11:24:34.234Z,1.50
2019-06-20T11:27:02.334Z,1.17
2019-06-20T11:29:30.370Z,1.47
2019-06-20T11:31:58.439Z,1.45
2019-06-20T11:34:26.719Z,1.40
2019-06-20T11:36:55.004Z,1.20
2019-06-20T11:39:23.422Z,1.42
2019-06-20T11:41:51.537Z,1.42
2019-06-20T11:44:24.932Z,1.60
2019-06-20T11:46:53.275Z,1.32
2019-06-20T11:49:21.197Z,2.17
2019-06-20T11:51:49.173Z,2.12
2019-06-20T11:54:17.337Z,3.62
2019-06-20T11:56:45.608Z,2.40
2019-06-20T11:59:13.559Z,2.00
2019-06-20T12:01:42.878Z,1.50
2019-06-20T12:04:10.761Z,1.67
2019-06-20T12:06:40.133Z,1.50
2019-06-20T12:09:08.562Z,1.30
2019-06-20T12:11:36.412Z,1.30
2019-06-20T12:14:04.385Z,1.45
2019-06-20T12:16:32.182Z,1.75
2019-06-20T12:19:01.334Z,1.50
2019-06-20T12:21:29.576Z,1.40
2019-06-20T12:23:57.706Z,1.22
2019-06-20T12:26:26.071Z,1.50
2019-06-20T12:28:54.344Z,1.62
2019-06-20T12:31:22.483Z,1.40
2019-06-20T12:33:50.661Z,1.90
2019-06-20T12:36:18.926Z,1.40
2019-06-20T12:38:48.356Z,1.17
2019-06-20T12:41:17.200Z,1.20
2019-06-20T12:43:46.351Z,1.30
2019-06-20T12:46:14.818Z,1.37
2019-06-20T12:48:43.140Z,1.43
2019-06-20T12:51:11.572Z,1.40
2019-06-20T12:53:40.494Z,1.70
2019-06-20T12:56:09.656Z,1.60
2019-06-20T12:58:39.003Z,1.63
2019-06-20T13:01:07.104Z,1.80
2019-06-20T13:03:34.866Z,1.47
2019-06-20T13:06:02.863Z,1.30
2019-06-20T13:08:30.676Z,1.43
2019-06-20T13:10:58.562Z,1.70
2019-06-20T13:13:26.352Z,1.70
2019-06-20T13:15:54.156Z,1.70
2019-06-20T13:18:21.997Z,2.00
2019-06-20T13:20:49.749Z,8.73
2019-06-20T13:23:17.586Z,1.70
2019-06-20T13:25:46.733Z,1.53
2019-06-20T13:28:14.890Z,1.60
2019-06-20T13:30:46.861Z,1.80
2019-06-20T13:33:12.544Z,1.30
2019-06-20T13:35:42.319Z,1.60
2019-06-20T13:38:10.904Z,1.60
2019-06-20T13:40:43.069Z,9.07
2019-06-20T13:43:12.209Z,2.60
2019-06-20T13:45:47.273Z,1.55
2019-06-20T13:48:15.744Z,1.22
2019-06-20T13:50:45.208Z,3.33
2019-06-20T13:53:13.099Z,4.50
2019-06-20T13:55:42.377Z,2.00
2019-06-20T13:58:12.031Z,1.60
2019-06-20T14:00:42.938Z,2.12
2019-06-20T14:03:10.052Z,1.50
2019-06-20T14:05:38.087Z,1.98
2019-06-20T14:08:05.928Z,1.60
2019-06-20T14:10:36.012Z,2.20
2019-06-20T14:13:18.713Z,3.30
2019-06-20T14:15:36.170Z,5.87
2019-06-20T14:18:04.052Z,3.60
2019-06-20T14:20:32.123Z,1.70
2019-06-20T14:22:59.981Z,1.50
2019-06-20T14:25:27.802Z,1.35
2019-06-20T14:27:55.765Z,1.67
2019-06-20T14:30:24.002Z,1.20
2019-06-20T14:32:53.883Z,1.20
2019-06-20T14:35:22.218Z,1.60
2019-06-20T14:37:51.782Z,1.80
2019-06-20T14:40:20.720Z,1.60
2019-06-20T14:42:50.114Z,1.50
2019-06-20T14:45:20.589Z,1.80
2019-06-20T14:47:48.457Z,1.57
2019-06-20T14:50:16.423Z,1.63
2019-06-20T14:52:46.104Z,1.73
2019-06-20T14:55:19.727Z,1.50
2019-06-20T14:57:48.492Z,1.80
2019-06-20T15:00:17.604Z,1.70
2019-06-20T15:02:47.217Z,1.40
2019-06-20T15:05:15.748Z,1.90
2019-06-20T15:07:45.122Z,1.50
2019-06-20T15:10:13.677Z,1.57
2019-06-20T15:12:41.552Z,1.70
2019-06-20T15:15:09.701Z,2.00
2019-06-20T15:17:37.631Z,1.90
2019-06-20T15:20:06.666Z,1.60
2019-06-20T15:22:34.612Z,1.80
2019-06-20T15:25:02.844Z,2.07
2019-06-20T15:27:30.644Z,1.90
2019-06-20T15:29:58.474Z,1.97
2019-06-20T15:32:26.274Z,1.60
2019-06-20T15:34:55.111Z,2.03
2019-06-20T15:37:23.030Z,1.93
2019-06-20T15:39:51.832Z,3.43
2019-06-20T15:42:22.499Z,2.37
2019-06-20T15:44:51.749Z,1.67
2019-06-20T15:47:19.761Z,1.80
2019-06-20T15:49:48.156Z,1.70
2019-06-20T15:52:16.617Z,2.83
2019-06-20T15:54:45.097Z,1.70
2019-06-20T15:57:13.473Z,1.90
2019-06-20T15:59:42.249Z,1.70
2019-06-20T16:02:10.658Z,1.90
2019-06-20T16:04:38.819Z,1.83
2019-06-20T16:07:06.704Z,1.70
2019-06-20T16:09:34.812Z,1.70
2019-06-20T16:12:02.712Z,1.90
2019-06-20T16:14:30.574Z,1.70
2019-06-20T16:16:58.979Z,1.70
2019-06-20T16:19:27.239Z,1.63
2019-06-20T16:21:55.043Z,1.90
2019-06-20T16:24:23.284Z,1.70
2019-06-20T16:26:51.684Z,1.90
2019-06-20T16:29:20.279Z,1.70
2019-06-20T16:32:07.776Z,1.60
2019-06-20T16:34:36.240Z,1.93
2019-06-20T16:37:10.118Z,1.83
2019-06-20T16:39:34.808Z,1.53
2019-06-20T16:42:03.243Z,1.50
2019-06-20T16:44:31.475Z,1.60
2019-06-20T16:46:59.862Z,1.77
2019-06-20T16:49:28.256Z,1.80
2019-06-20T16:51:56.864Z,1.80
2019-06-20T16:54:25.171Z,1.87
2019-06-20T16:56:53.639Z,1.60
2019-06-20T16:59:21.644Z,1.73
2019-06-20T17:01:50.129Z,1.83
2019-06-20T17:04:19.187Z,1.60
2019-06-20T17:06:51.088Z,1.70
2019-06-20T17:09:19.199Z,1.70
2019-06-20T17:11:47.674Z,1.87
2019-06-20T17:14:26.477Z,2.10
2019-06-20T17:16:58.711Z,2.00
2019-06-20T17:19:28.040Z,1.83
2019-06-20T17:21:58.072Z,1.70
2019-06-20T17:24:27.591Z,1.67
2019-06-20T17:26:57.072Z,1.70
2019-06-20T17:29:32.151Z,2.00
2019-06-20T17:32:07.198Z,1.70
2019-06-20T17:34:43.084Z,1.93
2019-06-20T17:37:11.513Z,1.70
2019-06-20T17:39:42.090Z,1.80
2019-06-20T17:42:17.710Z,1.60
2019-06-20T17:44:47.965Z,1.37
2019-06-20T17:47:17.452Z,1.40
2019-06-20T17:49:49.466Z,1.10
2019-06-20T17:52:32.480Z,1.50
2019-06-20T17:55:12.254Z,1.33
2019-06-20T17:57:42.562Z,1.50
2019-06-20T18:00:13.617Z,1.50
2019-06-20T18:02:42.837Z,1.40
2019-06-20T18:05:15.275Z,1.20
2019-06-20T18:07:48.666Z,1.10
2019-06-20T18:10:25.535Z,1.30
2019-06-20T18:12:58.784Z,1.20
2019-06-20T18:15:33.746Z,1.40
2019-06-20T18:18:02.751Z,1.37
2019-06-20T18:20:44.338Z,1.10
2019-06-20T18:23:23.124Z,1.10
2019-06-20T18:26:14.694Z,1.37
2019-06-20T18:28:46.679Z,1.27
2019-06-20T18:31:17.198Z,1.43
2019-06-20T18:33:47.032Z,1.60
2019-06-20T18:36:21.932Z,1.30
2019-06-20T18:38:52.306Z,1.37
2019-06-20T18:41:28.568Z,1.20
2019-06-20T18:43:57.020Z,1.20
2019-06-20T18:46:26.255Z,1.30
2019-06-20T18:48:54.611Z,1.50
2019-06-20T18:51:23.461Z,1.50
2019-06-20T18:53:55.391Z,1.10
2019-06-20T18:56:28.065Z,1.30
2019-06-20T18:58:56.835Z,1.50
2019-06-20T19:01:28.263Z,1.20
2019-06-20T19:03:57.594Z,1.50
2019-06-20T19:06:35.850Z,1.40
2019-06-20T19:08:58.940Z,1.20
2019-06-20T19:11:27.898Z,1.20
2019-06-20T19:13:56.470Z,1.33
2019-06-20T19:16:27.583Z,1.30
2019-06-20T19:18:56.795Z,1.23
2019-06-20T19:21:25.695Z,1.40
2019-06-20T19:23:55.527Z,1.60
2019-06-20T19:26:24.077Z,1.40
2019-06-20T19:28:52.277Z,1.20
2019-06-20T19:31:21.285Z,1.50
2019-06-20T19:33:52.111Z,1.47
2019-06-20T19:36:26.624Z,1.50
2019-06-20T19:38:55.254Z,1.43
2019-06-20T19:41:23.744Z,1.50
2019-06-20T19:43:52.362Z,1.23
2019-06-20T19:46:20.694Z,1.50
2019-06-20T19:48:48.600Z,1.17
2019-06-20T19:51:19.583Z,1.30
2019-06-20T19:53:47.621Z,1.77
2019-06-20T19:56:15.700Z,1.50
2019-06-20T19:58:44.381Z,1.60
2019-06-20T20:01:12.957Z,1.40
2019-06-20T20:03:41.785Z,1.63
2019-06-20T20:06:10.379Z,1.60
2019-06-20T20:08:38.950Z,1.40
2019-06-20T20:11:07.490Z,1.53
2019-06-20T20:13:35.947Z,1.80
2019-06-20T20:16:05.108Z,1.37
2019-06-20T20:18:33.617Z,1.40
2019-06-20T20:21:02.262Z,1.60
2019-06-20T20:23:48.957Z,1.60
2019-06-20T20:26:17.484Z,1.40
2019-06-20T20:28:46.643Z,1.70
2019-06-20T20:31:15.464Z,1.67
2019-06-20T20:33:44.185Z,1.50
2019-06-20T20:36:24.865Z,1.40
2019-06-20T20:38:47.246Z,1.67
2019-06-20T20:41:17.059Z,1.70
2019-06-20T20:43:57.406Z,1.67
2019-06-20T20:46:46.902Z,1.50
2019-06-20T20:49:22.978Z,1.90
2019-06-20T20:52:01.226Z,1.67
2019-06-20T20:54:52.203Z,1.50
2019-06-20T20:57:20.729Z,1.93
2019-06-20T20:59:49.201Z,1.70
2019-06-20T21:02:17.658Z,1.77
2019-06-20T21:04:46.233Z,1.77
2019-06-20T21:07:14.851Z,1.60
2019-06-20T21:09:43.418Z,1.70
2019-06-20T21:12:11.721Z,1.67
2019-06-20T21:14:50.613Z,1.70
2019-06-20T21:17:19.180Z,1.70
2019-06-20T21:19:50.025Z,1.70
2019-06-20T21:22:18.708Z,1.90
2019-06-20T21:24:47.468Z,2.10
2019-06-20T21:27:15.707Z,2.00
2019-06-20T21:29:56.297Z,1.80
2019-06-20T21:32:24.138Z,1.53
2019-06-20T21:34:51.922Z,1.80
2019-06-20T21:37:19.678Z,1.53
2019-06-20T21:39:47.523Z,1.80
2019-06-20T21:42:15.341Z,1.80
2019-06-20T21:44:43.148Z,1.90
2019-06-20T21:47:10.905Z,1.80
2019-06-20T21:49:38.710Z,1.80
2019-06-20T21:52:06.627Z,1.83
2019-06-20T21:54:34.434Z,2.10
2019-06-20T21:57:02.297Z,1.93
2019-06-20T21:59:30.105Z,2.40
2019-06-20T22:01:58.007Z,2.07
2019-06-20T22:04:31.024Z,2.13
2019-06-20T22:06:58.828Z,1.90
2019-06-20T22:09:26.847Z,1.90
2019-06-20T22:11:54.652Z,2.10
2019-06-20T22:14:22.460Z,2.00
2019-06-20T22:16:50.220Z,2.23
2019-06-20T22:19:18.086Z,2.03
2019-06-20T22:21:46.677Z,2.20
2019-06-20T22:24:14.753Z,2.40
2019-06-20T22:26:42.492Z,2.30
2019-06-20T22:29:10.293Z,2.20
2019-06-20T22:31:38.114Z,2.10
2019-06-20T22:34:05.917Z,2.17
2019-06-20T22:36:40.059Z,2.20
2019-06-20T22:39:06.368Z,2.40
2019-06-20T22:41:34.182Z,2.20
2019-06-20T22:44:02.153Z,2.20
2019-06-20T22:46:29.963Z,2.53
2019-06-20T22:49:17.265Z,2.40
2019-06-20T22:51:45.081Z,2.63
2019-06-20T22:54:12.834Z,2.30
2019-06-20T22:56:40.623Z,2.30
2019-06-20T22:59:08.418Z,2.43
2019-06-20T23:01:36.223Z,2.50
2019-06-20T23:04:03.989Z,2.20
2019-06-20T23:06:31.750Z,2.30
2019-06-20T23:08:59.522Z,2.13
2019-06-20T23:11:27.302Z,2.20
2019-06-20T23:13:55.129Z,2.13
2019-06-20T23:16:22.920Z,2.27
2019-06-20T23:18:50.705Z,2.57
2019-06-20T23:21:18.496Z,2.60
2019-06-20T23:23:46.256Z,2.27
2019-06-20T23:26:14.481Z,2.70
2019-06-20T23:28:42.323Z,2.80
2019-06-20T23:31:10.121Z,2.67
2019-06-20T23:33:37.870Z,2.37
2019-06-20T23:36:05.847Z,2.60
2019-06-20T23:38:33.654Z,2.70
2019-06-20T23:41:01.427Z,3.17
2019-06-20T23:43:29.285Z,2.80
2019-06-20T23:45:57.271Z,2.63
2019-06-20T23:48:25.049Z,3.30
2019-06-20T23:50:52.853Z,2.77
2019-06-20T23:53:23.618Z,2.70
2019-06-20T23:55:52.407Z,2.40
2019-06-20T23:58:20.198Z,2.60
